Time;durP1;ratioP1;P1;durP2;ratioP2;P2;SDS_P1;SDS_P2;PMS_P1;PMS_P2;Temp;Humidity;BMP_temperature;BMP_pressure;BME280_temperature;BME280_humidity;BME280_pressure;Samples;Min_cycle;Max_cycle;Signal;HPM_P1;HPM_P2
2021/08/28 00:00:40;;;;;;;19.30;17.40;;;;;;;22.10;100.00;100093.33;1692729;83;21133;-58
2021/08/28 00:03:08;;;;;;;20.07;17.97;;;;;;;22.07;100.00;100093.31;1693349;83;21058;-58
2021/08/28 00:05:35;;;;;;;21.03;18.77;;;;;;;21.98;100.00;100102.86;1704380;82;21129;-57
2021/08/28 00:08:02;;;;;;;22.87;18.60;;;;;;;21.79;100.00;100101.75;1703069;82;20969;-58
2021/08/28 00:10:28;;;;;;;24.07;19.13;;;;;;;21.90;100.00;100101.26;1706200;82;21559;-59
2021/08/28 00:12:55;;;;;;;21.53;19.23;;;;;;;21.72;100.00;100105.18;1703290;82;21610;-58
2021/08/28 00:15:22;;;;;;;20.57;18.37;;;;;;;21.67;100.00;100107.80;1706286;82;21484;-58
2021/08/28 00:17:50;;;;;;;23.53;18.57;;;;;;;21.44;100.00;100105.88;1702147;82;20998;-58
2021/08/28 00:20:16;;;;;;;21.90;16.37;;;;;;;21.15;100.00;100108.07;1702322;83;21503;-59
2021/08/28 00:22:43;;;;;;;19.63;17.60;;;;;;;21.10;100.00;100110.17;1704404;82;21857;-58
2021/08/28 00:25:10;;;;;;;20.70;18.30;;;;;;;21.11;100.00;100103.01;1699996;83;21161;-58
2021/08/28 00:27:37;;;;;;;19.90;17.87;;;;;;;20.95;100.00;100110.08;1705274;82;21090;-59
2021/08/28 00:30:07;;;;;;;23.20;19.63;;;;;;;21.04;100.00;100114.36;1703464;82;21018;-59
2021/08/28 00:32:34;;;;;;;22.53;19.30;;;;;;;20.96;100.00;100115.64;1678208;83;21101;-59
2021/08/28 00:35:00;;;;;;;19.80;17.70;;;;;;;20.96;100.00;100110.87;1701504;82;21588;-58
2021/08/28 00:37:28;;;;;;;19.53;17.50;;;;;;;20.98;100.00;100112.19;1704506;82;21640;-58
2021/08/28 00:39:55;;;;;;;20.13;18.13;;;;;;;21.11;100.00;100115.73;1701102;82;21552;-58
2021/08/28 00:42:22;;;;;;;19.90;17.63;;;;;;;21.00;100.00;100112.75;1700868;82;22334;-58
2021/08/28 00:44:49;;;;;;;20.53;18.50;;;;;;;20.96;100.00;100109.54;1701194;82;21555;-59
2021/08/28 00:47:22;;;;;;;20.23;18.13;;;;;;;20.76;100.00;100110.17;1700020;83;20986;-59
2021/08/28 00:49:49;;;;;;;19.47;17.47;;;;;;;20.80;100.00;100113.94;1705316;82;21133;-59
2021/08/28 00:52:17;;;;;;;22.13;18.83;;;;;;;20.71;100.00;100117.56;1700972;82;21014;-59
2021/08/28 00:54:48;;;;;;;22.07;18.67;;;;;;;20.71;100.00;100118.09;1701708;83;21559;-59
2021/08/28 00:57:17;;;;;;;21.80;19.50;;;;;;;20.69;100.00;100113.06;1701027;82;21034;-59
2021/08/28 00:59:46;;;;;;;20.48;18.27;;;;;;;20.59;100.00;100120.39;1699319;82;20999;-59
2021/08/28 01:02:13;;;;;;;20.57;18.47;;;;;;;20.52;100.00;100118.47;1698939;83;21117;-58
2021/08/28 01:04:51;;;;;;;20.00;17.80;;;;;;;20.92;100.00;100117.20;1663925;84;20991;-59
2021/08/28 01:07:37;;;;;;;21.07;18.97;;;;;;;21.04;100.00;100120.45;1634420;86;21794;-59
2021/08/28 01:10:12;;;;;;;22.27;19.50;;;;;;;21.06;100.00;100122.84;1661146;84;21079;-60
2021/08/28 01:12:58;;;;;;;21.27;18.10;;;;;;;21.19;100.00;100121.08;1620845;84;22245;-60
2021/08/28 01:15:26;;;;;;;20.37;18.27;;;;;;;21.35;100.00;100130.73;1666108;84;21024;-59
2021/08/28 01:17:55;;;;;;;21.83;19.10;;;;;;;21.28;100.00;100131.98;1667634;84;21088;-59
2021/08/28 01:20:27;;;;;;;20.33;18.23;;;;;;;21.12;100.00;100127.92;1665158;84;21168;-59
2021/08/28 01:22:58;;;;;;;20.17;18.00;;;;;;;21.13;100.00;100130.84;1637227;84;21091;-57
2021/08/28 01:25:29;;;;;;;22.20;19.10;;;;;;;21.16;100.00;100134.05;1664358;84;21082;-57
2021/08/28 01:28:09;;;;;;;20.70;18.37;;;;;;;21.27;100.00;100133.84;1664691;84;21149;-57
2021/08/28 01:30:39;;;;;;;20.73;17.70;;;;;;;21.23;100.00;100134.09;1669286;84;21394;-59
2021/08/28 01:33:06;;;;;;;20.40;18.20;;;;;;;21.31;100.00;100134.13;1639362;86;21169;-58
2021/08/28 01:35:34;;;;;;;22.20;19.10;;;;;;;21.37;100.00;100136.59;1665740;84;20980;-58
2021/08/28 01:38:01;;;;;;;22.07;19.70;;;;;;;21.27;100.00;100137.03;1635387;86;21598;-58
2021/08/28 01:40:30;;;;;;;20.53;18.43;;;;;;;21.28;100.00;100137.29;1666271;84;21035;-58
2021/08/28 01:42:59;;;;;;;20.60;18.50;;;;;;;21.37;100.00;100140.57;1664630;84;21090;-58
2021/08/28 01:45:26;;;;;;;19.97;17.87;;;;;;;21.41;100.00;100138.20;1667133;84;21161;-57
2021/08/28 01:47:54;;;;;;;21.37;18.80;;;;;;;21.73;100.00;100138.06;1668516;84;20976;-58
2021/08/28 01:50:23;;;;;;;22.13;19.03;;;;;;;22.02;100.00;100131.01;1664677;84;21007;-58
2021/08/28 01:52:52;;;;;;;21.07;18.87;;;;;;;22.14;100.00;100130.27;1666331;84;21046;-58
2021/08/28 01:55:20;;;;;;;20.50;18.33;;;;;;;21.95;100.00;100133.11;1666110;84;21595;-58
2021/08/28 01:58:00;;;;;;;22.00;17.67;;;;;;;22.14;100.00;100137.44;1666537;84;21151;-58
2021/08/28 02:00:46;;;;;;;24.30;20.00;;;;;;;22.19;100.00;100139.56;1668738;84;21086;-58
2021/08/28 02:03:14;;;;;;;20.87;18.30;;;;;;;22.14;100.00;100137.44;1664825;84;21033;-58
2021/08/28 02:05:45;;;;;;;21.57;19.27;;;;;;;22.11;100.00;100137.39;1688996;83;21117;-58
2021/08/28 02:08:21;;;;;;;21.68;19.40;;;;;;;22.14;100.00;100141.42;1693722;84;20876;-58
2021/08/28 02:10:54;;;;;;;21.37;19.00;;;;;;;22.10;100.00;100148.55;1691874;83;22361;-58
2021/08/28 02:13:26;;;;;;;21.37;17.70;;;;;;;21.96;100.00;100151.42;1695556;83;21060;-59
2021/08/28 02:15:53;;;;;;;22.37;19.40;;;;;;;21.85;100.00;100149.78;1673703;84;21039;-58
2021/08/28 02:18:41;;;;;;;23.23;20.83;;;;;;;22.14;100.00;100152.03;1694201;83;20955;-58
2021/08/28 02:21:09;;;;;;;22.67;20.17;;;;;;;22.36;100.00;100137.22;1694434;83;21038;-59
2021/08/28 02:23:46;;;;;;;21.90;19.00;;;;;;;21.96;100.00;100147.97;1693582;83;21067;-58
2021/08/28 02:26:27;;;;;;;22.70;20.37;;;;;;;21.84;100.00;100144.22;1674357;84;21616;-58
2021/08/28 02:29:00;;;;;;;22.67;20.27;;;;;;;21.95;100.00;100149.03;1696211;83;21009;-58
2021/08/28 02:31:35;;;;;;;21.70;19.33;;;;;;;21.90;100.00;100151.15;1693532;83;21062;-58
2021/08/28 02:34:05;;;;;;;21.20;19.00;;;;;;;21.82;100.00;100151.12;1694442;83;21600;-59
2021/08/28 02:36:31;;;;;;;21.90;19.70;;;;;;;21.92;100.00;100147.69;1676383;84;22068;-59
2021/08/28 02:38:58;;;;;;;22.70;20.40;;;;;;;21.74;100.00;100145.50;1693689;83;21382;-59
2021/08/28 02:41:26;;;;;;;23.27;20.27;;;;;;;21.72;100.00;100148.42;1693597;83;21539;-58
2021/08/28 02:43:59;;;;;;;21.27;18.60;;;;;;;21.91;100.00;100150.08;1693918;83;21042;-58
2021/08/28 02:46:26;;;;;;;;;;;;;;;22.03;100.00;100152.50;1697525;83;21129;-58
2021/08/28 02:48:54;;;;;;;20.27;18.17;;;;;;;22.18;100.00;100145.14;1693818;83;21110;-58
2021/08/28 02:51:20;;;;;;;21.77;19.50;;;;;;;22.14;100.00;100146.20;1674114;84;21469;-59
2021/08/28 02:53:48;;;;;;;21.70;19.40;;;;;;;22.24;100.00;100144.10;1697240;83;21504;-58
2021/08/28 02:56:16;;;;;;;20.10;18.00;;;;;;;22.18;100.00;100151.78;1690952;83;21097;-58
2021/08/28 02:58:44;;;;;;;20.70;18.50;;;;;;;23.03;100.00;100144.95;1695226;83;21021;-58
2021/08/28 03:01:11;;;;;;;21.60;17.50;;;;;;;23.73;100.00;100148.23;1688527;81;21133;-59
2021/08/28 03:03:39;;;;;;;20.70;18.47;;;;;;;23.12;100.00;100156.37;1655579;84;21605;-58
2021/08/28 03:06:06;;;;;;;21.13;18.93;;;;;;;23.58;100.00;100152.25;1661436;84;22005;-59
2021/08/28 03:08:35;;;;;;;22.77;20.10;;;;;;;23.43;100.00;100155.22;1653769;84;21067;-59
2021/08/28 03:11:02;;;;;;;19.97;17.67;;;;;;;22.96;100.00;100167.02;1654447;84;21035;-59
2021/08/28 03:13:29;;;;;;;20.53;18.40;;;;;;;22.66;100.00;100166.99;1654284;84;21835;-57
2021/08/28 03:15:57;;;;;;;20.73;18.70;;;;;;;22.68;100.00;100167.52;1633749;85;21150;-59
2021/08/28 03:18:24;;;;;;;22.03;19.83;;;;;;;22.51;100.00;100163.26;1675181;83;21106;-58
2021/08/28 03:20:56;;;;;;;22.83;20.33;;;;;;;22.42;100.00;100170.13;1683156;82;21043;-58
2021/08/28 03:23:26;;;;;;;;;;;;;;;22.38;100.00;100175.70;1685310;82;21181;-58
2021/08/28 03:25:57;;;;;;;21.23;18.50;;;;;;;22.43;100.00;100179.72;1693390;82;20189;-59
2021/08/28 03:28:24;;;;;;;21.10;18.90;;;;;;;22.51;100.00;100177.08;1693339;82;20920;-59
2021/08/28 03:30:51;;;;;;;20.77;18.57;;;;;;;22.60;100.00;100179.47;1679964;85;21055;-58
2021/08/28 03:33:18;;;;;;;19.97;17.57;;;;;;;22.97;100.00;100184.55;1677054;84;21086;-58
2021/08/28 03:35:49;;;;;;;18.17;16.23;;;;;;;23.70;100.00;100185.49;1676175;85;21550;-59
2021/08/28 03:38:15;;;;;;;45.73;31.30;;;;;;;24.36;100.00;100184.39;1681375;83;21822;-59
2021/08/28 03:40:43;;;;;;;28.40;23.70;;;;;;;24.98;100.00;100179.41;1680486;84;21019;-59
2021/08/28 03:43:10;;;;;;;23.67;21.17;;;;;;;25.42;100.00;100183.28;1647029;85;21513;-58
2021/08/28 03:45:39;;;;;;;24.50;19.90;;;;;;;26.32;100.00;100174.94;1678802;84;21059;-59
2021/08/28 03:48:07;;;;;;;21.97;18.83;;;;;;;26.60;100.00;100177.78;1676560;85;21110;-59
2021/08/28 03:50:34;;;;;;;21.73;18.03;;;;;;;27.29;100.00;100173.95;1682370;83;21161;-59
2021/08/28 03:53:02;;;;;;;20.23;17.83;;;;;;;28.05;100.00;100179.11;1678797;84;21012;-58
2021/08/28 03:55:29;;;;;;;19.83;17.93;;;;;;;28.59;100.00;100174.67;1676802;84;21066;-58
2021/08/28 03:57:56;;;;;;;18.83;17.03;;;;;;;28.98;100.00;100178.59;1679447;85;20960;-59
2021/08/28 04:00:23;;;;;;;19.17;17.27;;;;;;;29.57;100.00;100174.30;1678481;83;21020;-59
2021/08/28 04:02:51;;;;;;;18.90;17.10;;;;;;;30.09;100.00;100185.17;1680320;83;21594;-59
2021/08/28 04:05:19;;;;;;;19.07;17.12;;;;;;;30.51;95.56;100184.17;1683860;83;21599;-59
2021/08/28 04:07:45;;;;;;;19.57;17.67;;;;;;;31.58;80.82;100173.01;1711807;82;21162;-59
2021/08/28 04:10:13;;;;;;;19.35;17.52;;;;;;;32.38;69.67;100181.80;1707801;82;21572;-59
2021/08/28 04:12:40;;;;;;;19.05;17.32;;;;;;;32.36;64.98;100186.75;1693819;83;20983;-59
2021/08/28 04:15:08;;;;;;;18.50;16.73;;;;;;;31.86;65.81;100194.36;1689344;84;22519;-58
2021/08/28 04:17:39;;;;;;;18.98;17.07;;;;;;;31.31;71.69;100192.55;1687964;82;22258;-58
2021/08/28 04:20:07;;;;;;;18.50;16.80;;;;;;;31.51;73.81;100192.38;1689261;84;21059;-59
2021/08/28 04:22:34;;;;;;;19.15;17.25;;;;;;;31.78;68.14;100193.02;1691473;82;21135;-58
2021/08/28 04:25:10;;;;;;;17.98;16.17;;;;;;;31.94;67.47;100192.72;1691251;82;20936;-58
2021/08/28 04:27:55;;;;;;;19.05;17.15;;;;;;;32.06;61.89;100192.78;1689876;84;21175;-56
2021/08/28 04:30:29;;;;;;;19.35;17.55;;;;;;;31.62;61.67;100190.89;1691740;82;21472;-58
2021/08/28 04:32:56;;;;;;;17.90;16.25;;;;;;;31.43;63.38;100191.86;1703995;82;21062;-58
2021/08/28 04:35:22;;;;;;;21.17;19.07;;;;;;;31.16;65.21;100203.27;1713666;82;21000;-58
2021/08/28 04:37:50;;;;;;;18.60;16.75;;;;;;;31.04;67.61;100197.78;1682013;83;20980;-58
2021/08/28 04:40:17;;;;;;;21.05;18.40;;;;;;;31.08;70.28;100197.37;1688472;83;21204;-59
2021/08/28 04:42:43;;;;;;;19.60;17.77;;;;;;;31.40;69.97;100204.62;1710195;82;21048;-58
2021/08/28 04:45:11;;;;;;;19.98;17.90;;;;;;;32.08;65.73;100196.48;1707568;82;20983;-57
2021/08/28 04:47:39;;;;;;;17.70;16.00;;;;;;;33.04;57.67;100199.94;1685798;83;21110;-57
2021/08/28 04:50:08;;;;;;;17.50;15.80;;;;;;;33.47;53.18;100204.03;1682927;83;21021;-57
2021/08/28 04:52:37;;;;;;;17.25;15.55;;;;;;;34.27;49.79;100202.55;1681147;83;21084;-57
2021/08/28 04:55:05;;;;;;;17.02;15.35;;;;;;;34.72;48.10;100204.19;1680975;83;21667;-62
2021/08/28 04:57:31;;;;;;;17.37;15.60;;;;;;;35.31;45.12;100208.79;1715544;82;21648;-59
2021/08/28 04:59:58;;;;;;;16.32;14.83;;;;;;;35.72;43.44;100204.70;1702618;82;21036;-59
2021/08/28 05:02:32;;;;;;;15.25;13.80;;;;;;;36.28;42.46;100202.20;1649881;83;21075;-59
2021/08/28 05:05:00;;;;;;;16.30;14.73;;;;;;;36.66;40.67;100203.33;1681691;84;22321;-59
2021/08/28 05:07:27;;;;;;;16.20;14.58;;;;;;;37.22;38.87;100204.89;1686035;84;21536;-59
2021/08/28 05:09:56;;;;;;;16.52;14.85;;;;;;;37.45;38.22;100211.67;1672399;84;21525;-59
2021/08/28 05:12:23;;;;;;;15.95;14.38;;;;;;;38.04;37.14;100209.98;1685282;84;21110;-59
2021/08/28 05:14:52;;;;;;;16.70;14.98;;;;;;;38.53;36.16;100206.25;1682304;84;21508;-59
2021/08/28 05:17:18;;;;;;;19.67;17.87;;;;;;;39.00;35.37;100212.95;1671668;84;21153;-59
2021/08/28 05:19:47;;;;;;;21.87;19.65;;;;;;;39.27;33.73;100211.62;1684947;84;21023;-59
2021/08/28 05:22:24;;;;;;;33.50;30.00;;;;;;;39.15;33.95;100213.27;1682224;84;22503;-60
2021/08/28 05:24:53;;;;;;;20.85;18.73;;;;;;;39.23;34.08;100213.52;1685158;84;21071;-59
2021/08/28 05:27:19;;;;;;;17.07;15.40;;;;;;;39.33;33.50;100205.25;1690879;84;22536;-59
2021/08/28 05:29:45;;;;;;;16.75;15.10;;;;;;;39.33;33.02;100205.25;1688594;84;21132;-59
2021/08/28 05:32:12;;;;;;;18.42;14.93;;;;;;;39.03;33.54;100212.98;1690704;84;21079;-59
2021/08/28 05:34:39;;;;;;;18.65;16.85;;;;;;;38.75;33.53;100206.66;1691035;84;21015;-58
2021/08/28 07:18:26;;;;;;;12.80;11.60;;;;;;;39.73;33.08;100222.06;1688299;83;21117;-64
2021/08/28 07:20:54;;;;;;;13.70;12.53;;;;;;;39.67;32.90;100218.12;1682348;83;21102;-64
2021/08/28 07:23:20;;;;;;;13.00;11.73;;;;;;;39.99;32.22;100216.92;1692951;82;21133;-65
2021/08/28 07:25:53;;;;;;;14.23;12.85;;;;;;;39.73;32.29;100219.34;1692236;81;21062;-66
2021/08/28 07:28:22;;;;;;;13.65;12.35;;;;;;;39.53;32.29;100218.03;1689089;82;21087;-67
2021/08/28 07:31:05;;;;;;;12.78;11.50;;;;;;;39.32;32.85;100218.66;1697668;82;21081;-67
2021/08/28 07:33:33;;;;;;;13.55;12.33;;;;;;;39.59;32.97;100216.49;1684623;83;21158;-68
2021/08/28 07:36:00;;;;;;;13.00;11.70;;;;;;;39.70;32.23;100217.36;1679373;83;21011;-67
2021/08/28 07:38:27;;;;;;;12.70;11.50;;;;;;;39.85;32.32;100212.77;1690996;83;20911;-66
2021/08/28 07:40:54;;;;;;;14.07;11.57;;;;;;;40.10;31.11;100218.34;1693382;82;21090;-66
2021/08/28 07:43:20;;;;;;;13.45;12.25;;;;;;;39.80;31.52;100213.92;1686581;82;21521;-65
2021/08/28 07:45:49;;;;;;;12.98;11.68;;;;;;;39.73;31.92;100217.97;1681426;82;21170;-67
2021/08/28 07:48:17;;;;;;;13.05;11.80;;;;;;;39.66;31.76;100213.81;1687431;82;21431;-68
2021/08/28 07:50:46;;;;;;;12.98;11.68;;;;;;;39.47;31.41;100210.78;1681041;82;21049;-68
2021/08/28 07:53:13;;;;;;;12.10;11.00;;;;;;;39.09;31.67;100205.23;1689487;82;21126;-68
2021/08/28 07:55:42;;;;;;;11.70;10.70;;;;;;;39.33;31.39;100206.62;1689994;82;21015;-68
2021/08/28 07:58:09;;;;;;;12.07;10.98;;;;;;;39.60;31.07;100212.63;1667642;84;21799;-66
2021/08/28 08:00:36;;;;;;;11.10;10.10;;;;;;;39.81;29.77;100202.41;1689011;83;21173;-69
2021/08/28 08:03:03;;;;;;;10.75;9.75;;;;;;;39.75;29.38;100204.74;1683966;83;21675;-66
2021/08/28 08:05:34;;;;;;;11.15;9.55;;;;;;;39.59;29.53;100211.03;1690211;83;21086;-67
2021/08/28 08:08:05;;;;;;;10.50;9.50;;;;;;;39.87;29.38;100206.35;1689235;83;21015;-68
2021/08/28 08:10:50;;;;;;;12.68;10.88;;;;;;;40.38;28.59;100196.58;1690562;82;22419;-67
2021/08/28 08:13:35;;;;;;;10.58;9.58;;;;;;;40.35;28.07;100200.11;1690466;82;21079;-67
2021/08/28 08:16:04;;;;;;;10.32;9.33;;;;;;;40.33;28.13;100198.34;1659862;83;21102;-66
2021/08/28 08:18:50;;;;;;;11.30;9.95;;;;;;;40.47;28.42;100188.63;1687121;84;21110;-66
2021/08/28 08:21:36;;;;;;;10.80;9.78;;;;;;;40.92;28.26;100191.22;1685696;85;21189;-66
2021/08/28 08:24:19;;;;;;;10.82;9.28;;;;;;;41.71;27.23;100187.00;1686545;83;21170;-66
2021/08/28 08:26:50;;;;;;;11.20;8.30;;;;;;;41.54;26.52;100188.03;1681827;83;21068;-67
2021/08/28 08:29:19;;;;;;;8.23;7.42;;;;;;;41.25;26.05;100185.92;1673970;85;21102;-67
2021/08/28 08:31:59;;;;;;;9.45;8.55;;;;;;;41.27;25.44;100194.52;1685555;84;21035;-65
2021/08/28 08:34:33;;;;;;;9.70;8.48;;;;;;;41.33;25.86;100191.59;1684722;85;21008;-68
2021/08/28 08:37:00;;;;;;;9.88;7.70;;;;;;;41.64;25.58;100187.82;1678791;83;21709;-67
2021/08/28 08:39:27;;;;;;;11.12;9.08;;;;;;;42.15;25.40;100186.44;1685969;85;21130;-66
2021/08/28 08:41:54;;;;;;;9.38;8.48;;;;;;;42.97;24.25;100185.13;1687197;85;21031;-65
2021/08/28 08:44:21;;;;;;;8.58;7.78;;;;;;;43.16;24.10;100187.91;1684868;85;20928;-64
2021/08/28 08:46:49;;;;;;;9.18;8.20;;;;;;;43.40;23.78;100178.63;1687056;85;21047;-67
2021/08/28 08:49:15;;;;;;;9.13;8.20;;;;;;;43.91;23.51;100178.84;1685626;85;21138;-64
2021/08/28 08:51:42;;;;;;;9.30;8.40;;;;;;;44.16;23.12;100177.13;1686731;85;22052;-65
2021/08/28 08:54:09;;;;;;;8.45;7.70;;;;;;;44.41;23.02;100176.20;1659809;85;21497;-67
2021/08/28 08:56:38;;;;;;;9.30;8.13;;;;;;;44.25;22.21;100174.66;1672430;83;21083;-64
2021/08/28 08:59:05;;;;;;;10.72;8.58;;;;;;;43.61;22.76;100170.78;1677081;83;21032;-66
2021/08/28 09:01:32;;;;;;;11.05;8.78;;;;;;;43.08;24.07;100174.86;1674682;83;21125;-64
2021/08/28 09:04:17;;;;;;;9.68;8.28;;;;;;;42.96;23.65;100166.52;1673928;85;21047;-64
2021/08/28 09:06:46;;;;;;;8.70;7.90;;;;;;;42.45;23.94;100169.44;1655409;83;21039;-65
2021/08/28 09:09:13;;;;;;;9.50;7.97;;;;;;;41.67;24.57;100162.37;1672116;83;21375;-65
2021/08/28 09:12:01;;;;;;;9.30;8.30;;;;;;;41.39;25.28;100161.86;1671520;83;21043;-65
2021/08/28 09:14:29;;;;;;;9.28;8.15;;;;;;;41.40;25.41;100164.01;1653343;84;39074;-66
2021/08/28 09:16:57;;;;;;;10.98;8.15;;;;;;;41.28;25.49;100157.78;1655191;84;21028;-66
2021/08/28 09:19:37;;;;;;;9.33;8.20;;;;;;;41.35;25.98;100157.59;1647216;84;21226;-65
2021/08/28 09:22:08;;;;;;;8.13;7.33;;;;;;;41.51;25.34;100152.47;1642793;86;21016;-65
2021/08/28 09:24:44;;;;;;;11.55;7.28;;;;;;;41.61;25.38;100157.14;1650602;86;21044;-69
2021/08/28 09:27:11;;;;;;;8.40;6.83;;;;;;;42.05;24.63;100157.14;1654866;86;21154;-66
2021/08/28 09:29:44;;;;;;;8.08;7.28;;;;;;;42.48;24.15;100155.53;1653015;86;21448;-67
2021/08/28 09:32:11;;;;;;;8.83;7.92;;;;;;;42.67;24.14;100154.24;1653298;85;21010;-70
2021/08/28 09:34:38;;;;;;;9.05;8.15;;;;;;;42.97;23.67;100154.95;1681993;83;21557;-66
2021/08/28 09:37:05;;;;;;;8.05;7.25;;;;;;;42.92;23.58;100151.26;1612598;84;20975;-66
2021/08/28 09:39:43;;;;;;;8.90;6.87;;;;;;;42.97;23.39;100157.09;1680394;83;21165;-66
2021/08/28 09:42:12;;;;;;;8.48;7.62;;;;;;;42.88;23.75;100153.26;1680612;83;21640;-69
2021/08/28 09:44:42;;;;;;;7.95;6.65;;;;;;;43.08;23.02;100150.77;1626613;86;22443;-65
2021/08/28 09:47:29;;;;;;;10.38;6.97;;;;;;;43.18;23.34;100152.00;1677864;84;21064;-65
2021/08/28 09:49:54;;;;;;;10.48;7.97;;;;;;;43.29;23.03;100147.78;1631961;84;21100;-69
2021/08/28 09:52:23;;;;;;;9.50;7.65;;;;;;;43.13;23.43;100151.09;1646905;85;21527;-67
2021/08/28 09:54:50;;;;;;;9.40;8.40;;;;;;;42.95;23.56;100147.71;1649302;86;20936;-67
2021/08/28 09:57:17;;;;;;;14.18;7.42;;;;;;;42.93;23.52;100150.88;1650426;86;21504;-66
2021/08/28 09:59:45;;;;;;;8.68;7.12;;;;;;;42.45;23.86;100149.48;1647407;86;22343;-69
2021/08/28 10:02:18;;;;;;;9.00;7.45;;;;;;;42.27;24.16;100150.38;1642904;86;21119;-66
2021/08/28 10:04:57;;;;;;;;;;;;;;;42.63;23.46;100147.98;1653865;85;21166;-67
2021/08/28 10:07:29;;;;;;;8.05;7.12;;;;;;;42.74;23.14;100147.33;1650074;84;20149;-68
2021/08/28 10:10:01;;;;;;;7.67;6.67;;;;;;;42.89;23.27;100149.36;1648079;85;21015;-66
2021/08/28 10:12:34;;;;;;;7.45;6.65;;;;;;;43.06;23.03;100148.38;1668510;83;21589;-69
2021/08/28 10:15:03;;;;;;;7.70;6.90;;;;;;;43.03;23.02;100149.79;1665744;85;20941;-68
2021/08/28 10:17:30;;;;;;;7.30;6.60;;;;;;;43.09;22.75;100154.46;1667152;84;21170;-68
2021/08/28 10:19:57;;;;;;;8.68;7.10;;;;;;;43.04;22.71;100150.77;1682865;85;21061;-67
2021/08/28 10:22:26;;;;;;;8.48;6.85;;;;;;;43.18;22.82;100152.00;1683772;85;21154;-67
2021/08/28 10:24:57;;;;;;;8.20;7.35;;;;;;;43.33;22.44;100146.36;1674316;84;21149;-67
2021/08/28 10:27:26;;;;;;;7.92;7.03;;;;;;;43.33;22.36;100146.36;1678630;84;21611;-70
2021/08/28 10:29:53;;;;;;;9.33;7.42;;;;;;;43.20;22.99;100145.53;1673305;85;21508;-69
2021/08/28 10:32:20;;;;;;;7.37;6.65;;;;;;;43.20;22.46;100141.41;1681654;84;21027;-69
2021/08/28 10:34:51;;;;;;;8.00;7.25;;;;;;;43.09;22.56;100142.13;1682286;84;20984;-68
2021/08/28 10:37:18;;;;;;;9.38;7.40;;;;;;;43.24;22.47;100143.52;1686680;85;21096;-70
2021/08/28 10:39:48;;;;;;;8.45;7.65;;;;;;;43.06;22.59;100139.38;1685499;85;20976;-68
2021/08/28 10:42:15;;;;;;;7.45;6.75;;;;;;;43.17;22.32;100135.37;1681717;85;21166;-68
2021/08/28 10:44:42;;;;;;;10.25;7.70;;;;;;;43.06;22.59;100133.89;1686059;83;21031;-67
2021/08/28 10:47:14;;;;;;;9.85;8.65;;;;;;;42.52;22.82;100132.39;1680579;83;21094;-66
2021/08/28 10:49:51;;;;;;;8.70;7.80;;;;;;;41.90;23.69;100140.03;1676677;83;21202;-66
2021/08/28 10:52:26;;;;;;;8.88;7.97;;;;;;;41.43;23.98;100138.63;1677463;83;20955;-66
2021/08/28 10:54:56;;;;;;;8.08;7.25;;;;;;;40.84;24.56;100141.80;1678468;85;21551;-67
2021/08/28 10:57:28;;;;;;;9.90;8.40;;;;;;;40.56;25.18;100146.11;1681893;85;21039;-70
2021/08/28 11:00:14;;;;;;;9.80;8.43;;;;;;;40.97;24.91;100143.56;1677287;85;21093;-66
2021/08/28 11:02:51;;;;;;;8.98;8.08;;;;;;;40.70;24.91;100151.39;1640447;85;21639;-69
2021/08/28 11:05:20;;;;;;;8.90;8.00;;;;;;;40.00;25.92;100148.09;1686024;85;21091;-65
2021/08/28 11:07:46;;;;;;;10.37;8.13;;;;;;;39.91;25.82;100147.69;1686473;83;21813;-67
2021/08/28 11:10:24;;;;;;;8.40;7.47;;;;;;;40.65;25.34;100138.91;1681043;83;21510;-66
2021/08/28 11:13:04;;;;;;;8.53;7.67;;;;;;;40.72;25.71;100137.52;1677691;83;21011;-67
2021/08/28 11:15:39;;;;;;;13.85;9.18;;;;;;;40.91;25.33;100134.96;1685116;85;21079;-66
2021/08/28 11:18:11;;;;;;;9.93;8.38;;;;;;;40.57;25.26;100142.78;1682825;83;21007;-65
2021/08/28 11:20:44;;;;;;;12.37;9.15;;;;;;;40.66;25.32;100137.73;1693452;82;21139;-67
2021/08/28 11:23:17;;;;;;;12.37;9.70;;;;;;;40.99;25.47;100134.39;1689813;83;21073;-65
2021/08/28 11:25:47;;;;;;;10.05;9.10;;;;;;;41.24;25.19;100135.13;1689211;82;21035;-66
2021/08/28 11:28:14;;;;;;;11.03;9.08;;;;;;;41.68;24.09;100128.37;1683620;82;21067;-70
2021/08/28 11:30:46;;;;;;;8.33;7.53;;;;;;;41.51;23.87;100136.05;1690865;83;21542;-66
2021/08/28 11:33:32;;;;;;;12.53;7.83;;;;;;;41.55;23.14;100129.98;1685376;82;21170;-66
2021/08/28 11:36:19;;;;;;;8.83;7.35;;;;;;;41.22;23.94;100133.39;1687504;83;21020;-66
2021/08/28 11:38:51;;;;;;;11.60;8.23;;;;;;;41.43;23.43;100131.79;1690177;83;21070;-65
2021/08/28 11:41:24;;;;;;;8.85;8.05;;;;;;;41.45;24.13;100129.45;1687241;83;21091;-68
2021/08/28 11:43:52;;;;;;;8.30;7.22;;;;;;;41.19;23.53;100128.71;1687157;83;21121;-65
2021/08/28 11:46:25;;;;;;;10.48;7.25;;;;;;;41.07;23.82;100123.66;1688755;83;21146;-65
2021/08/28 11:48:52;;;;;;;8.40;7.62;;;;;;;41.42;23.27;100127.50;1665717;83;20979;-64
2021/08/28 11:51:20;;;;;;;10.38;7.37;;;;;;;41.42;22.69;100123.41;1687863;83;21008;-66
2021/08/28 11:53:53;;;;;;;7.25;6.55;;;;;;;40.97;23.43;100119.73;1684565;83;21028;-65
2021/08/28 11:56:23;;;;;;;7.78;6.87;;;;;;;40.53;24.15;100118.75;1691004;83;21051;-65
2021/08/28 11:59:01;;;;;;;7.90;7.20;;;;;;;40.53;23.88;100116.02;1688406;83;21198;-66
2021/08/28 12:01:32;;;;;;;8.48;7.42;;;;;;;41.09;23.87;100113.88;1683538;83;21453;-66
2021/08/28 12:04:09;;;;;;;7.60;6.90;;;;;;;41.35;23.63;100113.23;1685149;83;21109;-65
2021/08/28 12:06:37;;;;;;;8.40;7.00;;;;;;;41.49;23.55;100111.84;1681899;83;21063;-67
2021/08/28 12:09:07;;;;;;;10.18;7.22;;;;;;;41.58;23.28;100112.77;1686325;83;21102;-68
2021/08/28 12:11:36;;;;;;;7.35;6.65;;;;;;;41.58;23.95;100111.41;1684380;82;21074;-66
2021/08/28 12:14:04;;;;;;;8.13;7.37;;;;;;;41.46;23.00;100111.85;1680741;82;21018;-66
2021/08/28 12:16:34;;;;;;;8.08;6.85;;;;;;;41.15;23.51;100110.16;1685824;83;21178;-65
2021/08/28 12:19:08;;;;;;;7.92;7.12;;;;;;;41.12;24.11;100105.48;1676226;82;21074;-66
2021/08/28 12:21:40;;;;;;;8.30;7.50;;;;;;;41.14;23.97;100104.48;1661977;83;22032;-65
2021/08/28 12:24:26;;;;;;;10.10;7.37;;;;;;;41.14;23.37;100101.75;1677325;84;21145;-65
2021/08/28 12:26:59;;;;;;;7.30;6.60;;;;;;;40.94;23.79;100097.87;1675482;83;20995;-65
2021/08/28 12:29:33;;;;;;;7.37;6.65;;;;;;;40.76;23.62;100100.03;1673278;84;20948;-65
2021/08/28 12:32:07;;;;;;;8.13;7.30;;;;;;;40.20;23.86;100099.44;1670447;85;22306;-64
2021/08/28 12:34:36;;;;;;;8.03;7.30;;;;;;;40.11;24.28;100100.53;1671008;83;20908;-65
2021/08/28 12:37:05;;;;;;;8.05;7.25;;;;;;;39.92;24.15;100096.80;1655705;85;21105;-65
2021/08/28 12:39:31;;;;;;;8.10;7.15;;;;;;;39.71;25.09;100098.89;1680367;83;21565;-65
2021/08/28 12:41:58;;;;;;;9.20;7.62;;;;;;;39.65;24.65;100103.89;1676048;84;20951;-65
2021/08/28 12:44:30;;;;;;;8.90;8.00;;;;;;;39.63;24.44;100095.91;1678688;83;20971;-67
2021/08/28 12:46:54;;;;;;;8.18;7.37;;;;;;;39.46;24.86;100097.39;1673489;83;21125;-65
2021/08/28 12:49:23;;;;;;;8.53;7.72;;;;;;;39.27;25.24;100099.05;1646604;85;21153;-65
2021/08/28 12:52:03;;;;;;;8.85;7.95;;;;;;;39.42;25.31;100092.50;1680542;83;20971;-65
2021/08/28 12:54:33;;;;;;;9.35;8.43;;;;;;;39.01;25.85;100094.00;1673497;83;21098;-64
2021/08/28 12:57:08;;;;;;;8.83;8.03;;;;;;;38.94;25.96;100097.45;1675259;85;21122;-64
2021/08/28 12:59:50;;;;;;;8.83;7.92;;;;;;;38.62;25.82;100094.48;1676862;85;21505;-64
2021/08/28 13:02:22;;;;;;;8.53;7.62;;;;;;;38.26;26.18;100090.62;1676556;83;22812;-64
2021/08/28 13:04:50;;;;;;;13.53;7.62;;;;;;;37.98;26.68;100089.19;1670247;85;20984;-65
2021/08/28 13:07:21;;;;;;;8.70;7.80;;;;;;;38.15;26.71;100081.02;1647827;85;21079;-64
2021/08/28 13:10:14;;;;;;;8.65;7.80;;;;;;;38.12;26.72;100087.78;1678848;83;20968;-66